Time;durP1;ratioP1;P1;durP2;ratioP2;P2;SDS_P1;SDS_P2;PMS_P1;PMS_P2;Temp;Humidity;BMP_temperature;BMP_pressure;BME280_temperature;BME280_humidity;BME280_pressure;Samples;Min_cycle;Max_cycle;Signal;HPM_P1;HPM_P2
2021/03/27 00:01:44;;;;;;;1999.90;999.90;;;;;;;11.98;83.89;-18227.94;5019611;28;20332;-29
2021/03/27 00:04:40;;;;;;;1999.90;999.90;;;;;;;11.91;83.69;-18225.94;5019216;28;20206;-29
2021/03/27 00:07:31;;;;;;;1999.90;999.90;;;;;;;11.92;83.55;-18226.19;5019259;28;20206;-29
2021/03/27 00:10:23;;;;;;;1999.90;999.90;;;;;;;11.72;83.19;-18220.97;5019078;28;20218;-30
2021/03/27 00:13:34;;;;;;;1999.90;999.90;;;;;;;11.76;85.11;-18222.06;5019658;28;20197;-29
2021/03/27 00:16:28;;;;;;;1999.90;999.90;;;;;;;11.64;84.97;-18218.84;5019087;28;20251;-29
2021/03/27 00:19:24;;;;;;;1999.90;999.90;;;;;;;11.79;83.95;-18222.84;5019334;28;20201;-29
2021/03/27 00:22:18;;;;;;;1999.90;999.90;;;;;;;11.79;83.83;-18222.84;5019547;28;20658;-29
2021/03/27 00:25:18;;;;;;;1999.90;999.90;;;;;;;11.80;83.91;-18223.13;5021640;28;20205;-29
2021/03/27 00:28:16;;;;;;;1999.90;999.90;;;;;;;11.94;82.16;-18226.72;5019480;28;20304;-29
2021/03/27 00:31:10;;;;;;;1999.90;999.90;;;;;;;12.06;84.20;-18229.94;5022717;28;20197;-29
2021/03/27 00:34:00;;;;;;;1999.90;999.90;;;;;;;12.04;83.62;-18229.53;5028454;28;20288;-29
2021/03/27 00:36:50;;;;;;;1999.90;999.90;;;;;;;12.06;84.40;-18230.06;5039961;28;20601;-29
2021/03/27 00:39:42;;;;;;;1999.90;999.90;;;;;;;12.06;83.06;-18229.94;5038447;28;20205;-29
2021/03/27 00:42:31;;;;;;;1999.90;999.90;;;;;;;11.90;85.00;-18225.66;5038683;28;20290;-29
2021/03/27 00:45:20;;;;;;;1999.90;999.90;;;;;;;11.96;84.07;-18227.41;5039021;28;20600;-29
2021/03/27 00:48:12;;;;;;;1999.90;999.90;;;;;;;12.29;83.78;-18236.06;5038635;28;20208;-29
2021/03/27 00:51:01;;;;;;;1999.90;999.90;;;;;;;12.00;85.86;-18228.31;5039131;28;20217;-29
2021/03/27 00:53:54;;;;;;;1999.90;999.90;;;;;;;12.23;85.46;-18234.47;5037916;28;20206;-29
2021/03/27 00:56:48;;;;;;;1999.90;999.90;;;;;;;12.35;85.98;-18237.53;5038231;28;20208;-29
2021/03/27 00:59:37;;;;;;;1999.90;999.90;;;;;;;12.30;84.81;-18236.22;5042158;28;20206;-30
2021/03/27 01:02:24;;;;;;;1999.90;999.90;;;;;;;12.31;83.67;-18236.47;5041298;28;20655;-29
2021/03/27 01:05:15;;;;;;;1999.90;999.90;;;;;;;12.44;88.71;-18239.94;5037938;28;20205;-29
2021/03/27 01:08:02;;;;;;;1999.90;999.90;;;;;;;12.41;87.94;-18239.13;5039702;28;20205;-29
2021/03/27 01:10:52;;;;;;;1999.90;999.90;;;;;;;12.49;91.27;-18241.16;5038223;28;20680;-29
2021/03/27 01:13:42;;;;;;;1999.90;999.90;;;;;;;12.30;91.75;-18236.34;5037140;28;20197;-30
2021/03/27 01:16:33;;;;;;;1999.90;999.90;;;;;;;10.63;100.00;-18192.25;5037448;28;20298;-30
2021/03/27 01:19:30;;;;;;;1999.90;999.90;;;;;;;10.16;100.00;-18179.81;5037571;28;20215;-29
2021/03/27 01:22:18;;;;;;;1999.90;999.90;;;;;;;9.65;100.00;-18166.56;5037326;28;20232;-29
2021/03/27 01:25:07;;;;;;;1999.90;999.90;;;;;;;9.56;100.00;-18164.03;5037776;28;20294;-29
2021/03/27 01:27:56;;;;;;;1999.90;999.90;;;;;;;9.39;100.00;-18159.47;5040441;28;20291;-29
2021/03/27 01:30:53;;;;;;;1999.90;999.90;;;;;;;9.35;100.00;-18158.53;5040938;28;20197;-29
2021/03/27 01:33:52;;;;;;;1999.90;999.90;;;;;;;9.42;100.00;-18160.28;5038413;28;20248;-29
2021/03/27 01:36:43;;;;;;;1999.90;999.90;;;;;;;9.25;100.00;-18156.00;5037937;28;20260;-29
2021/03/27 01:39:41;;;;;;;1999.90;999.90;;;;;;;9.06;100.00;-16906.78;5037857;28;20201;-29
2021/03/27 01:42:39;;;;;;;1999.90;999.90;;;;;;;8.93;100.00;-10984.38;5037616;28;20287;-28
2021/03/27 01:45:56;;;;;;;1999.90;999.90;;;;;;;8.66;100.00;-5378.38;5038434;28;20332;-28
2021/03/27 01:49:03;;;;;;;1999.90;999.90;;;;;;;8.60;100.00;505.63;5038919;28;20197;-29
2021/03/27 01:52:10;;;;;;;1999.90;999.90;;;;;;;7.77;100.00;-870.88;5043643;28;20248;-29
2021/03/27 01:55:14;;;;;;;1999.90;999.90;;;;;;;7.54;100.00;2308.81;5038098;28;20275;-28
2021/03/27 01:58:04;;;;;;;1999.90;999.90;;;;;;;7.25;100.00;4518.63;5039438;28;20201;-28
2021/03/27 02:00:54;;;;;;;1999.90;999.90;;;;;;;7.16;100.00;5313.63;5037673;28;20209;-29
2021/03/27 02:03:45;;;;;;;1999.90;999.90;;;;;;;6.89;100.00;3044.34;5038501;28;20194;-29
2021/03/27 02:06:38;;;;;;;1999.90;999.90;;;;;;;6.95;100.00;6292.81;5038198;28;20201;-29
2021/03/27 02:09:30;;;;;;;1999.90;999.90;;;;;;;7.17;100.00;13562.59;5038537;28;20291;-29
2021/03/27 02:12:33;;;;;;;1999.90;999.90;;;;;;;6.96;100.00;15459.53;5038584;28;20198;-29
2021/03/27 02:15:29;;;;;;;1999.90;999.90;;;;;;;6.96;100.00;13544.59;5039179;28;20202;-29
2021/03/27 02:18:23;;;;;;;1999.90;999.90;;;;;;;6.97;100.00;10338.25;5038771;28;20205;-28
2021/03/27 02:21:48;;;;;;;1999.90;999.90;;;;;;;7.16;100.00;12213.47;5039082;28;20229;-29
2021/03/27 02:24:58;;;;;;;1999.90;999.90;;;;;;;6.80;100.00;9106.25;5040094;28;20296;-29
2021/03/27 02:27:56;;;;;;;1999.90;999.90;;;;;;;6.89;100.00;11302.03;5037852;28;20247;-29
2021/03/27 02:30:46;;;;;;;1999.90;999.90;;;;;;;7.01;100.00;11556.16;5040366;28;20216;-28
2021/03/27 02:33:38;;;;;;;1999.90;999.90;;;;;;;6.93;100.00;10252.09;5036880;28;20272;-29
2021/03/27 02:36:35;;;;;;;1999.90;999.90;;;;;;;7.18;100.00;10478.44;5037049;28;20212;-29
2021/03/27 02:39:25;;;;;;;1999.90;999.90;;;;;;;6.84;100.00;9275.34;5038321;28;20197;-29
2021/03/27 02:42:31;;;;;;;1999.90;999.90;;;;;;;7.00;100.00;14109.28;5037634;28;20229;-29
2021/03/27 02:45:20;;;;;;;1999.90;999.90;;;;;;;7.06;100.00;11604.97;5039258;28;20303;-29
2021/03/27 02:48:17;;;;;;;1999.90;999.90;;;;;;;7.06;100.00;11901.75;5037808;28;20197;-29
2021/03/27 02:51:09;;;;;;;1999.90;999.90;;;;;;;7.05;100.00;9427.34;5037019;28;20293;-29
2021/03/27 02:54:15;;;;;;;1999.90;999.90;;;;;;;7.02;100.00;8846.31;5037712;28;20192;-29
2021/03/27 02:57:09;;;;;;;1999.90;999.90;;;;;;;7.14;100.00;9172.66;5038351;28;20602;-29
2021/03/27 03:00:01;;;;;;;1999.90;999.90;;;;;;;6.98;100.00;8825.50;5037968;28;20205;-29
2021/03/27 03:02:58;;;;;;;1999.90;999.90;;;;;;;6.81;100.00;8968.16;5037381;28;20570;-29
2021/03/27 03:05:49;;;;;;;1999.90;999.90;;;;;;;6.89;100.00;10422.19;5041112;28;20470;-29
2021/03/27 03:08:47;;;;;;;1999.90;999.90;;;;;;;7.15;100.00;10779.59;5037688;28;20267;-29
2021/03/27 03:11:44;;;;;;;1999.90;999.90;;;;;;;6.96;100.00;8184.41;5048755;28;20199;-29
2021/03/27 03:14:41;;;;;;;1999.90;999.90;;;;;;;6.88;100.00;6799.16;5038367;28;20209;-29
2021/03/27 03:17:34;;;;;;;1999.90;999.90;;;;;;;6.79;100.00;6790.41;5038234;28;20201;-29
2021/03/27 03:20:28;;;;;;;1999.90;999.90;;;;;;;6.55;100.00;5705.34;5038244;28;20210;-29
2021/03/27 03:23:25;;;;;;;1999.90;999.90;;;;;;;6.85;100.00;7622.44;5039094;28;20272;-29
2021/03/27 03:26:28;;;;;;;1999.90;999.90;;;;;;;6.74;100.00;5092.88;5038157;28;20217;-30
2021/03/27 03:29:25;;;;;;;1999.90;999.90;;;;;;;6.97;100.00;5384.22;5041021;28;20490;-29
2021/03/27 03:32:22;;;;;;;1999.90;999.90;;;;;;;6.88;100.00;3977.63;5040792;28;20305;-29
2021/03/27 03:35:28;;;;;;;1999.90;999.90;;;;;;;6.83;100.00;3425.16;5042492;28;20233;-29
2021/03/27 03:38:39;;;;;;;1999.90;999.90;;;;;;;7.03;100.00;4772.34;5044604;28;20205;-30
2021/03/27 03:41:48;;;;;;;1999.90;999.90;;;;;;;6.88;100.00;1955.63;5040823;28;20200;-29
2021/03/27 03:44:49;;;;;;;1999.90;999.90;;;;;;;6.95;100.00;3004.66;5040515;28;20340;-29
2021/03/27 03:47:47;;;;;;;1999.90;999.90;;;;;;;6.96;100.00;3501.56;5040275;28;20608;-29
2021/03/27 03:50:42;;;;;;;1999.90;999.90;;;;;;;6.95;100.00;802.38;5044360;28;20284;-29
2021/03/27 03:53:38;;;;;;;1999.90;999.90;;;;;;;7.00;100.00;3070.34;5041991;28;20721;-30
2021/03/27 03:56:32;;;;;;;1999.90;999.90;;;;;;;7.09;100.00;2930.50;5044761;28;20489;-30
2021/03/27 03:59:39;;;;;;;1999.90;999.90;;;;;;;7.20;100.00;1092.03;5042342;28;20205;-30
2021/03/27 04:02:29;;;;;;;1999.90;999.90;;;;;;;7.11;100.00;-34.53;5040856;28;20536;-29
2021/03/27 04:05:21;;;;;;;1999.90;999.90;;;;;;;6.87;100.00;-17.72;5040270;28;20311;-30
2021/03/27 04:08:13;;;;;;;1999.90;999.90;;;;;;;7.26;100.00;2204.03;5040034;28;20248;-30
2021/03/27 04:11:07;;;;;;;1999.90;999.90;;;;;;;7.06;100.00;1565.44;5041870;28;20205;-30
2021/03/27 04:13:54;;;;;;;1999.90;999.90;;;;;;;7.35;100.00;-573.13;5040654;28;20260;-30
2021/03/27 04:16:43;;;;;;;1999.90;999.90;;;;;;;7.35;100.00;-5163.09;5042093;28;20206;-29
2021/03/27 04:19:35;;;;;;;1999.90;999.90;;;;;;;7.20;100.00;-5590.63;5039936;28;20201;-29
2021/03/27 04:22:29;;;;;;;1999.90;999.90;;;;;;;6.99;100.00;-5814.66;5039799;28;20716;-29
2021/03/27 04:25:33;;;;;;;1999.90;999.90;;;;;;;7.05;100.00;-5840.09;5043359;28;20207;-30
2021/03/27 04:28:33;;;;;;;1999.90;999.90;;;;;;;7.14;100.00;-8043.56;5040611;28;20209;-29
2021/03/27 04:31:25;;;;;;;1999.90;999.90;;;;;;;6.93;100.00;-9269.63;5045114;28;20293;-29
2021/03/27 04:34:16;;;;;;;1999.90;999.90;;;;;;;6.95;100.00;-10812.63;5041258;28;20244;-30
2021/03/27 04:37:06;;;;;;;1999.90;999.90;;;;;;;6.97;100.00;-11217.91;5039751;28;20206;-29
2021/03/27 04:39:58;;;;;;;1999.90;999.90;;;;;;;7.02;100.00;-12346.03;5038791;28;20205;-29
2021/03/27 04:42:52;;;;;;;1999.90;999.90;;;;;;;6.94;100.00;-15147.53;5039622;28;20228;-29
2021/03/27 04:45:44;;;;;;;1999.90;999.90;;;;;;;7.03;100.00;-17501.44;5040806;28;20540;-29
2021/03/27 04:48:37;;;;;;;1999.90;999.90;;;;;;;6.85;100.00;-18092.63;5042484;28;20473;-30
2021/03/27 04:51:50;;;;;;;1999.90;999.90;;;;;;;7.01;100.00;-18096.78;5039735;28;20309;-29
2021/03/27 04:54:54;;;;;;;1999.90;999.90;;;;;;;6.85;100.00;-18092.63;5039550;28;20202;-29
2021/03/27 04:57:46;;;;;;;1999.90;999.90;;;;;;;6.94;100.00;-18094.91;5039524;28;20216;-30
2021/03/27 05:00:50;;;;;;;1999.90;999.90;;;;;;;6.99;100.00;-18096.25;5039202;28;20204;-30
2021/03/27 05:03:42;;;;;;;1999.90;999.90;;;;;;;6.96;100.00;-18095.44;5039932;28;20229;-30
2021/03/27 05:06:38;;;;;;;1999.90;999.90;;;;;;;6.95;100.00;-18095.16;5039470;28;20205;-30
2021/03/27 05:09:41;;;;;;;1999.90;999.90;;;;;;;6.99;100.00;-18096.09;5042820;28;20201;-30
2021/03/27 05:12:48;;;;;;;1999.90;999.90;;;;;;;7.02;100.00;-18096.91;5040755;28;20260;-30
2021/03/27 05:19:37;;;;;;;1999.90;999.90;;;;;;;6.99;100.00;-18096.25;5040029;28;20620;-31
2021/03/27 05:22:34;;;;;;;1999.90;999.90;;;;;;;7.03;100.00;-18097.31;5039375;28;20232;-30
2021/03/27 05:25:52;;;;;;;1999.90;999.90;;;;;;;6.86;100.00;-18092.88;5039904;28;20493;-30
2021/03/27 05:29:13;;;;;;;1999.90;999.90;;;;;;;6.79;100.00;-18091.00;5039405;28;20208;-31
2021/03/27 05:32:17;;;;;;;1999.90;999.90;;;;;;;6.87;100.00;-18093.16;5040537;28;20228;-31
2021/03/27 05:35:16;;;;;;;1999.90;999.90;;;;;;;6.65;100.00;-18087.25;5040519;28;20237;-31
2021/03/27 05:38:15;;;;;;;1999.90;999.90;;;;;;;6.87;100.00;-18093.03;5039055;28;20275;-31
2021/03/27 05:41:38;;;;;;;1999.90;999.90;;;;;;;6.88;100.00;-18093.28;5041061;28;20221;-31
2021/03/27 05:44:57;;;;;;;1999.90;999.90;;;;;;;6.90;100.00;-18093.81;5039018;28;20217;-31
2021/03/27 05:48:49;;;;;;;1999.90;999.90;;;;;;;6.86;100.00;-18092.75;5042067;28;20596;-31
2021/03/27 05:52:23;;;;;;;1999.90;999.90;;;;;;;6.85;100.00;-18092.47;5039233;28;20213;-31
2021/03/27 05:55:33;;;;;;;1999.90;999.90;;;;;;;6.92;100.00;-18094.38;5010409;28;20600;-31
2021/03/27 05:58:44;;;;;;;1999.90;999.90;;;;;;;7.25;100.00;-18103.22;5039069;28;20197;-31
2021/03/27 06:01:53;;;;;;;1999.90;999.90;;;;;;;7.30;100.00;-18104.41;5039178;28;20297;-31
2021/03/27 06:05:14;;;;;;;1999.90;999.90;;;;;;;7.54;100.00;-18110.84;5038510;28;20300;-31
2021/03/27 06:08:20;;;;;;;1999.90;999.90;;;;;;;7.17;100.00;-18101.06;5038167;28;20205;-30
2021/03/27 06:11:27;;;;;;;1999.90;999.90;;;;;;;7.18;100.00;-18101.34;5039095;28;20620;-31
2021/03/27 06:14:54;;;;;;;1999.90;999.90;;;;;;;7.23;100.00;-18102.53;5038609;28;20221;-31
2021/03/27 06:18:10;;;;;;;1999.90;999.90;;;;;;;7.15;100.00;-18100.41;5022928;28;20204;-31
2021/03/27 06:21:10;;;;;;;1999.90;999.90;;;;;;;6.95;100.00;-18095.16;5038434;28;20205;-31
2021/03/27 06:24:16;;;;;;;1999.90;999.90;;;;;;;7.26;100.00;-18103.47;5038174;28;20203;-31
2021/03/27 06:27:10;;;;;;;1999.90;999.90;;;;;;;7.04;100.00;-18097.44;5037605;28;20202;-31
2021/03/27 06:30:27;;;;;;;1999.90;999.90;;;;;;;7.48;100.00;-18109.09;5043190;28;20201;-31
2021/03/27 06:33:42;;;;;;;1999.90;999.90;;;;;;;7.43;100.00;-18107.78;5038202;28;20237;-30
2021/03/27 06:36:54;;;;;;;1999.90;999.90;;;;;;;7.33;100.00;-18105.22;5037674;28;20205;-31
2021/03/27 06:40:21;;;;;;;1999.90;999.90;;;;;;;7.26;100.00;-18103.34;5038877;28;20202;-31
2021/03/27 06:43:28;;;;;;;1999.90;999.90;;;;;;;7.35;100.00;-18105.75;5037672;28;20216;-31
2021/03/27 06:46:51;;;;;;;1999.90;999.90;;;;;;;7.58;100.00;-18111.94;5036986;28;20204;-31
2021/03/27 06:50:04;;;;;;;1999.90;999.90;;;;;;;8.64;100.00;-18139.78;5041688;28;20201;-31
2021/03/27 06:53:19;;;;;;;1999.90;999.90;;;;;;;7.88;100.00;-18119.84;5038869;28;20705;-31
2021/03/27 06:56:34;;;;;;;1999.90;999.90;;;;;;;7.47;100.00;-18108.97;5037063;28;20370;-31
2021/03/27 07:00:04;;;;;;;1999.90;999.90;;;;;;;7.36;100.00;-18105.91;5037767;28;20296;-30
2021/03/27 07:03:26;;;;;;;1999.90;999.90;;;;;;;7.49;100.00;-18109.50;5040032;28;20205;-30
2021/03/27 07:06:37;;;;;;;1999.90;999.90;;;;;;;7.19;100.00;-18101.47;5041692;28;20260;-30
2021/03/27 07:10:11;;;;;;;1999.90;999.90;;;;;;;6.93;100.00;-18094.50;5040959;28;20268;-31
2021/03/27 07:13:17;;;;;;;1999.90;999.90;;;;;;;6.51;100.00;-18083.63;5042157;28;20283;-30
2021/03/27 07:16:17;;;;;;;1999.90;999.90;;;;;;;6.55;100.00;-18084.72;5041705;28;20197;-30
2021/03/27 07:19:54;;;;;;;1999.90;999.90;;;;;;;6.78;100.00;-18090.75;5045093;28;20197;-31
2021/03/27 07:22:53;;;;;;;1999.90;999.90;;;;;;;6.92;100.00;-18094.38;4944127;29;20248;-31
2021/03/27 07:25:48;;;;;;;1999.90;999.90;;;;;;;7.49;100.00;-18109.38;5042195;28;20216;-31
2021/03/27 07:29:02;;;;;;;1999.90;999.90;;;;;;;7.78;100.00;-18117.16;5041333;28;20201;-31
2021/03/27 07:31:53;;;;;;;1999.90;999.90;;;;;;;7.82;100.00;-18118.22;5043256;28;20197;-30
2021/03/27 07:35:11;;;;;;;1999.90;999.90;;;;;;;7.59;100.00;-18112.19;5040456;28;20551;-31
2021/03/27 07:38:32;;;;;;;1999.90;999.90;;;;;;;7.61;100.00;-18112.59;5023378;28;20207;-30
2021/03/27 07:41:51;;;;;;;1999.90;999.90;;;;;;;7.47;100.00;-18108.97;5043334;28;20249;-31
2021/03/27 07:44:56;;;;;;;1999.90;999.90;;;;;;;8.78;100.00;-18143.41;5041347;28;20351;-30
2021/03/27 07:48:08;;;;;;;1999.90;999.90;;;;;;;9.49;100.00;-18162.16;5048926;28;20522;-30
2021/03/27 07:51:03;;;;;;;1999.90;999.90;;;;;;;9.18;100.00;-18154.00;5021976;28;20257;-30
2021/03/27 07:54:27;;;;;;;1999.90;999.90;;;;;;;10.34;100.00;-18184.75;5027962;28;20287;-31
2021/03/27 07:57:55;;;;;;;1999.90;999.90;;;;;;;9.11;100.00;-18152.25;5040214;28;20216;-31
2021/03/27 08:00:54;;;;;;;1999.90;999.90;;;;;;;8.30;100.00;-18130.81;5039923;28;20209;-30
2021/03/27 08:04:09;;;;;;;1999.90;999.90;;;;;;;8.49;100.00;-18135.91;5040265;28;20311;-30
2021/03/27 08:06:57;;;;;;;1999.90;999.90;;;;;;;7.89;100.00;-18119.97;5040270;28;20205;-30
2021/03/27 08:10:29;;;;;;;1999.90;999.90;;;;;;;7.56;100.00;-18111.25;5039426;28;20322;-29
2021/03/27 08:13:38;;;;;;;1999.90;999.90;;;;;;;4.83;100.00;-18039.06;5041552;28;20216;-30
2021/03/27 08:16:38;;;;;;;1999.90;999.90;;;;;;;2.98;100.00;-17990.16;5048719;28;20260;-29
2021/03/27 08:19:54;;;;;;;1999.90;999.90;;;;;;;2.20;100.00;-17969.44;5045217;28;20244;-29
2021/03/27 08:23:17;;;;;;;1999.90;999.90;;;;;;;2.16;100.00;-15182.72;5045679;28;20535;-30
2021/03/27 08:26:16;;;;;;;1999.90;999.90;;;;;;;1.93;100.00;-8370.66;5040158;28;20542;-30
2021/03/27 08:29:48;;;;;;;1999.90;999.90;;;;;;;2.13;100.00;1567.56;5039011;28;20554;-30
2021/03/27 08:33:08;;;;;;;1999.90;999.90;;;;;;;2.48;100.00;10233.47;5038913;28;20490;-31
2021/03/27 08:36:30;;;;;;;1999.90;999.90;;;;;;;2.79;100.00;14911.03;5038484;28;20602;-31
2021/03/27 08:39:54;;;;;;;1999.90;999.90;;;;;;;3.19;100.00;16027.97;5038440;28;20542;-31
2021/03/27 08:43:24;;;;;;;1999.90;999.90;;;;;;;3.56;100.00;13483.63;5037876;28;20448;-30
2021/03/27 08:46:50;;;;;;;1999.90;999.90;;;;;;;3.57;100.00;7686.31;5037633;28;20458;-30
2021/03/27 08:50:36;;;;;;;1999.90;999.90;;;;;;;3.78;100.00;4137.63;5038711;28;20444;-30
2021/03/27 08:54:03;;;;;;;1999.90;999.90;;;;;;;3.80;100.00;2253.19;4979119;28;20482;-30
2021/03/27 08:57:18;;;;;;;1999.90;999.90;;;;;;;3.74;100.00;-304.13;4986645;28;20737;-29
2021/03/27 09:00:52;;;;;;;1999.90;999.90;;;;;;;4.23;100.00;485.84;5037317;28;20444;-30
2021/03/27 09:04:26;;;;;;;1999.90;999.90;;;;;;;4.44;100.00;-2872.94;5037959;28;20559;-29
2021/03/27 09:07:39;;;;;;;1999.90;999.90;;;;;;;6.18;100.00;-5364.47;5029040;28;20204;-30
2021/03/27 09:10:57;;;;;;;1999.90;999.90;;;;;;;6.12;100.00;-17744.84;5037716;28;20200;-30
2021/03/27 09:14:07;;;;;;;1999.90;999.90;;;;;;;6.04;100.00;-18071.03;5037756;28;20703;-31
2021/03/27 09:17:14;;;;;;;1999.90;999.90;;;;;;;5.79;100.00;-18064.59;5037571;28;20691;-31
2021/03/27 09:20:28;;;;;;;1999.90;999.90;;;;;;;6.12;100.00;-17630.22;5038256;28;20210;-31
2021/03/27 09:23:28;;;;;;;1999.90;999.90;;;;;;;6.34;100.00;-18078.94;5038743;28;20192;-31
2021/03/27 09:26:57;;;;;;;1999.90;999.90;;;;;;;6.35;100.00;-18079.22;5038127;28;20263;-31
2021/03/27 09:30:10;;;;;;;1999.90;999.90;;;;;;;6.22;100.00;-18075.84;5039322;28;20204;-31
2021/03/27 09:33:05;;;;;;;1999.90;999.90;;;;;;;6.52;100.00;-18083.78;5038175;28;20217;-31
2021/03/27 09:36:28;;;;;;;1999.90;999.90;;;;;;;7.22;100.00;-18102.28;5030116;28;20218;-31
2021/03/27 09:39:22;;;;;;;1999.90;999.90;;;;;;;8.21;100.00;-18128.41;5018218;28;20242;-31
2021/03/27 09:42:35;;;;;;;1999.90;999.90;;;;;;;7.97;100.00;-18121.97;5018874;28;20198;-32
2021/03/27 09:45:35;;;;;;;1999.90;999.90;;;;;;;7.77;100.00;-18116.88;5024051;28;20214;-31
2021/03/27 09:48:45;;;;;;;1999.90;999.90;;;;;;;7.89;100.00;-18120.09;5025590;28;20193;-31
2021/03/27 09:52:09;;;;;;;1999.90;999.90;;;;;;;9.16;100.00;-18153.59;5037462;28;20201;-32
2021/03/27 09:55:34;;;;;;;1999.90;999.90;;;;;;;9.14;100.00;-18153.06;5037907;28;20302;-32
2021/03/27 09:58:47;;;;;;;1999.90;999.90;;;;;;;8.48;100.00;-18135.63;5038146;28;20248;-32
2021/03/27 10:01:37;;;;;;;1999.90;999.90;;;;;;;8.74;100.00;-18142.34;5037743;28;20480;-32
2021/03/27 10:04:52;;;;;;;1999.90;999.90;;;;;;;8.83;100.00;-18144.88;5036650;28;20204;-31
2021/03/27 10:07:48;;;;;;;1999.90;999.90;;;;;;;8.02;100.00;-18123.31;5037434;28;20675;-32
2021/03/27 10:11:02;;;;;;;1999.90;999.90;;;;;;;8.35;100.00;-18132.03;5037728;28;20205;-32
2021/03/27 10:13:58;;;;;;;1999.90;999.90;;;;;;;8.51;100.00;-18136.31;5037287;28;20283;-32
2021/03/27 10:16:52;;;;;;;1999.90;999.90;;;;;;;9.40;100.00;-18159.88;5041058;28;20578;-32
2021/03/27 10:19:51;;;;;;;1999.90;999.90;;;;;;;9.33;100.00;-18158.00;5034947;28;20298;-32
2021/03/27 10:22:46;;;;;;;1999.90;999.90;;;;;;;9.16;100.00;-18153.59;5029557;28;20616;-31
2021/03/27 10:25:39;;;;;;;1999.90;999.90;;;;;;;8.09;100.00;-18125.19;5037058;28;20201;-32
2021/03/27 10:28:29;;;;;;;1999.90;999.90;;;;;;;7.61;100.00;-18112.59;5037746;28;20243;-32
2021/03/27 10:31:19;;;;;;;1999.90;999.90;;;;;;;7.79;100.00;-18117.28;5039637;28;20259;-32
2021/03/27 10:34:29;;;;;;;1999.90;999.90;;;;;;;7.02;100.00;-18097.03;5037158;28;20253;-32
2021/03/27 10:37:30;;;;;;;1999.90;999.90;;;;;;;6.96;100.00;-18095.44;5036518;28;20283;-31
2021/03/27 10:40:38;;;;;;;1999.90;999.90;;;;;;;4.73;100.00;-18036.53;5038032;28;20495;-30
2021/03/27 10:43:43;;;;;;;1999.90;999.90;;;;;;;4.37;100.00;-18026.84;5037841;28;20574;-31
2021/03/27 10:46:45;;;;;;;1999.90;999.90;;;;;;;4.75;100.00;-18036.94;5041785;28;20604;-31
2021/03/27 10:49:56;;;;;;;1999.90;999.90;;;;;;;4.49;100.00;-18030.22;5038035;28;20683;-31
2021/03/27 10:53:25;;;;;;;1999.90;999.90;;;;;;;4.63;100.00;-18033.69;5034596;28;20271;-32
2021/03/27 10:56:49;;;;;;;1999.90;999.90;;;;;;;4.58;100.00;-18032.34;5017896;28;20597;-32
2021/03/27 10:59:42;;;;;;;1999.90;999.90;;;;;;;4.82;100.00;-18038.81;5033186;28;20683;-31
2021/03/27 11:02:54;;;;;;;1999.90;999.90;;;;;;;5.14;100.00;-18047.41;5043150;28;20200;-32
2021/03/27 11:06:03;;;;;;;1999.90;999.90;;;;;;;5.86;100.00;-18066.47;5039459;28;20536;-31
2021/03/27 11:09:39;;;;;;;1999.90;999.90;;;;;;;5.75;100.00;-18063.38;5038035;28;20297;-31
2021/03/27 11:13:16;;;;;;;1999.90;999.90;;;;;;;6.19;100.00;-18075.19;5002879;28;20356;-30
2021/03/27 11:16:30;;;;;;;1999.90;999.90;;;;;;;7.04;100.00;-18097.59;4959211;29;20615;-30
2021/03/27 11:19:49;;;;;;;1999.90;999.90;;;;;;;8.67;100.00;-18140.47;4959882;28;20564;-31
2021/03/27 11:23:10;;;;;;;1999.90;999.90;;;;;;;8.14;100.00;-18126.53;5027367;28;20209;-31
2021/03/27 11:26:37;;;;;;;1999.90;999.90;;;;;;;8.98;100.00;-18148.91;5016822;28;20197;-32
2021/03/27 11:29:33;;;;;;;1999.90;999.90;;;;;;;8.06;100.00;-18124.53;5019024;28;20205;-31
2021/03/27 11:32:41;;;;;;;1999.90;999.90;;;;;;;9.01;100.00;-18149.56;5016553;28;20627;-31
2021/03/27 11:35:35;;;;;;;1999.90;999.90;;;;;;;7.77;100.00;-18116.88;5017291;28;20537;-31
2021/03/27 11:38:33;;;;;;;1999.90;999.90;;;;;;;8.68;100.00;-18140.88;5016670;28;20205;-32
2021/03/27 11:41:27;;;;;;;1999.90;999.90;;;;;;;7.95;100.00;-18121.56;5017770;28;20219;-31
2021/03/27 11:44:24;;;;;;;1999.90;999.90;;;;;;;7.74;100.00;-18116.09;5016380;28;20208;-31
2021/03/27 11:47:26;;;;;;;1999.90;999.90;;;;;;;7.31;100.00;-18104.56;5016688;28;20245;-31
2021/03/27 11:50:49;;;;;;;1999.90;999.90;;;;;;;7.37;100.00;-18106.16;5021276;28;20729;-31
2021/03/27 11:53:47;;;;;;;1999.90;999.90;;;;;;;7.54;100.00;-18110.72;5015771;28;20345;-31
2021/03/27 11:56:45;;;;;;;1999.90;999.90;;;;;;;7.61;100.00;-18112.72;5021578;28;20225;-31
2021/03/27 12:00:47;;;;;;;1999.90;999.90;;;;;;;7.42;100.00;-18107.50;5023872;28;20211;-31
2021/03/27 12:03:13;;;;;;;1999.90;999.90;;;;;;;7.22;100.00;-18102.41;5020411;28;20269;-31
2021/03/27 12:06:18;;;;;;;1999.90;999.90;;;;;;;7.03;100.00;-18097.19;5023696;28;20190;-31
2021/03/27 12:09:18;;;;;;;1999.90;999.90;;;;;;;6.50;100.00;-18083.22;5020974;28;20277;-31
2021/03/27 12:12:20;;;;;;;1999.90;999.90;;;;;;;5.96;100.00;-18068.88;5020215;28;20352;-30
2021/03/27 12:15:18;;;;;;;1999.90;999.90;;;;;;;5.57;100.00;-18058.53;5021668;28;20232;-31
2021/03/27 12:18:13;;;;;;;1999.90;999.90;;;;;;;5.34;100.00;-18052.63;5021115;28;20372;-31
2021/03/27 12:21:07;;;;;;;1999.90;999.90;;;;;;;6.00;100.00;-18069.94;5020092;28;20201;-31
2021/03/27 12:23:59;;;;;;;1999.90;999.90;;;;;;;7.13;100.00;-18100.00;5021135;28;20349;-31
2021/03/27 12:26:59;;;;;;;1999.90;999.90;;;;;;;8.67;100.00;-18140.47;5020253;28;20218;-31
2021/03/27 12:30:14;;;;;;;1999.90;999.90;;;;;;;9.59;100.00;-18164.81;5028225;28;20224;-31
2021/03/27 12:33:07;;;;;;;1999.90;999.90;;;;;;;8.16;100.00;-18127.06;5039332;28;20221;-31
2021/03/27 12:36:05;;;;;;;1999.90;999.90;;;;;;;10.21;100.00;-18181.16;5039682;28;20262;-32
2021/03/27 12:39:14;;;;;;;1999.90;999.90;;;;;;;10.22;100.00;-18181.41;5038980;28;20201;-32
2021/03/27 12:42:20;;;;;;;1999.90;999.90;;;;;;;8.34;100.00;-18131.91;5039877;28;20201;-33
2021/03/27 12:45:24;;;;;;;1999.90;999.90;;;;;;;8.17;100.00;-18127.34;5039370;28;20204;-32
2021/03/27 12:48:31;;;;;;;1999.90;999.90;;;;;;;8.71;100.00;-18141.53;5039112;28;20204;-31
2021/03/27 12:51:27;;;;;;;1999.90;999.90;;;;;;;8.70;100.00;-18141.41;5038682;28;20196;-31
2021/03/27 12:54:33;;;;;;;1999.90;999.90;;;;;;;9.20;100.00;-18154.53;5038654;28;20228;-31
2021/03/27 12:57:49;;;;;;;1999.90;999.90;;;;;;;8.14;100.00;-18126.53;5038224;28;20306;-31
2021/03/27 13:00:53;;;;;;;1999.90;999.90;;;;;;;10.08;100.00;-18177.81;5037414;28;20217;-31
2021/03/27 13:04:15;;;;;;;1999.90;999.90;;;;;;;10.91;90.46;-18199.72;5038415;28;20220;-32
2021/03/27 13:07:25;;;;;;;1999.90;999.90;;;;;;;9.83;94.91;-18171.25;5033869;28;20248;-32
2021/03/27 13:10:50;;;;;;;1999.90;999.90;;;;;;;12.76;88.01;-18248.50;5021829;28;20294;-32
2021/03/27 13:14:08;;;;;;;1999.90;999.90;;;;;;;12.64;84.06;-18245.16;5041860;28;20364;-30
2021/03/27 13:16:59;;;;;;;1999.90;999.90;;;;;;;13.44;87.33;-18266.38;5038674;28;20473;-30
2021/03/27 13:19:58;;;;;;;1999.90;999.90;;;;;;;13.22;88.65;-18260.50;5033495;28;20205;-30
2021/03/27 13:22:53;;;;;;;1999.90;999.90;;;;;;;11.38;95.77;-18212.16;5021094;28;20209;-31
2021/03/27 13:25:50;;;;;;;1999.90;999.90;;;;;;;10.52;95.81;-18189.44;5024678;28;20326;-31
2021/03/27 13:28:40;;;;;;;1999.90;999.90;;;;;;;11.16;93.62;-18206.16;5018600;28;20203;-31
2021/03/27 13:31:36;;;;;;;1999.90;999.90;;;;;;;10.64;99.46;-18192.66;5018361;28;20208;-30
2021/03/27 13:34:32;;;;;;;1999.90;999.90;;;;;;;11.16;100.00;-18206.16;5018032;28;20525;-30
2021/03/27 13:37:25;;;;;;;1999.90;999.90;;;;;;;10.63;94.00;-18192.25;5017614;28;20346;-30